Time;durP1;ratioP1;P1;durP2;ratioP2;P2;SDS_P1;SDS_P2;PMS_P1;PMS_P2;Temp;Humidity;BMP_temperature;BMP_pressure;BME280_temperature;BME280_humidity;BME280_pressure;Samples;Min_cycle;Max_cycle;Signal;HPM_P1;HPM_P2
2022/06/03 00:01:17;;;;;;;2.47;2.00;;;;;;;;;;7388394;19;20017;-75
2022/06/03 00:03:59;;;;;;;5.75;2.05;;;;;;;;;;7390004;19;20006;-75
2022/06/03 00:06:39;;;;;;;1.58;1.35;;;;;;;;;;7385999;19;20382;-76
2022/06/03 00:09:27;;;;;;;4.43;2.35;;;;;;;;;;7388238;19;20365;-76
2022/06/03 00:12:43;;;;;;;1.80;1.70;;;;;;;;;;7389077;19;20074;-75
2022/06/03 00:15:26;;;;;;;1.65;1.55;;;;;;;;;;7387276;19;20483;-75
2022/06/03 00:18:40;;;;;;;4.82;2.50;;;;;;;;;;7385858;19;20062;-74
2022/06/03 00:21:09;;;;;;;2.80;2.50;;;;;;;;;;7385054;19;20009;-76
2022/06/03 00:24:07;;;;;;;1.98;1.77;;;;;;;;;;7384656;19;20018;-76
2022/06/03 00:26:50;;;;;;;2.78;1.92;;;;;;;;;;7386133;19;20118;-75
2022/06/03 00:29:57;;;;;;;6.00;2.42;;;;;;;;;;7388279;19;20342;-76
2022/06/03 00:32:54;;;;;;;5.18;2.10;;;;;;;;;;7382829;19;20026;-76
2022/06/03 00:35:57;;;;;;;3.47;1.85;;;;;;;;;;7389157;19;20015;-76
2022/06/03 00:38:49;;;;;;;2.78;2.33;;;;;;;;;;7389675;19;20019;-76
2022/06/03 00:41:33;;;;;;;1.70;1.60;;;;;;;;;;7384429;19;20003;-74
2022/06/03 00:44:11;;;;;;;3.95;1.75;;;;;;;;;;7387381;19;20348;-75
2022/06/03 00:46:43;;;;;;;3.30;1.80;;;;;;;;;;7386116;19;20089;-77
2022/06/03 00:49:18;;;;;;;2.33;1.90;;;;;;;;;;7388431;19;20483;-74
2022/06/03 00:52:25;;;;;;;4.38;1.98;;;;;;;;;;7385490;19;20388;-75
2022/06/03 00:55:16;;;;;;;2.00;1.83;;;;;;;;;;7386189;19;20006;-75
2022/06/03 00:57:57;;;;;;;3.03;2.03;;;;;;;;;;7388323;19;20476;-75
2022/06/03 01:00:35;;;;;;;2.40;1.88;;;;;;;;;;7388975;19;20150;-75
2022/06/03 01:03:22;;;;;;;2.72;2.13;;;;;;;;;;7385171;19;20409;-75
2022/06/03 01:05:47;;;;;;;4.00;1.90;;;;;;;;;;7388106;19;20021;-75
2022/06/03 01:08:24;;;;;;;2.05;1.67;;;;;;;;;;7386400;19;20101;-76
2022/06/03 01:11:27;;;;;;;2.33;1.88;;;;;;;;;;7385946;19;20421;-76
2022/06/03 01:14:14;;;;;;;4.65;1.77;;;;;;;;;;7384808;19;20018;-76
2022/06/03 01:17:12;;;;;;;2.22;1.50;;;;;;;;;;7388177;19;20014;-74
2022/06/03 01:20:13;;;;;;;2.28;2.08;;;;;;;;;;7381666;19;20480;-76
2022/06/03 01:23:10;;;;;;;3.72;1.90;;;;;;;;;;7388871;19;20019;-76
2022/06/03 01:26:02;;;;;;;5.68;2.00;;;;;;;;;;7387288;19;20006;-76
2022/06/03 01:28:49;;;;;;;2.20;1.98;;;;;;;;;;7387287;19;20023;-76
2022/06/03 01:32:09;;;;;;;2.25;1.95;;;;;;;;;;7386055;19;20014;-75
2022/06/03 01:34:39;;;;;;;2.63;1.88;;;;;;;;;;7384598;19;20018;-79
2022/06/03 01:37:34;;;;;;;3.55;2.10;;;;;;;;;;7383701;19;20476;-78
2022/06/03 01:40:27;;;;;;;2.25;1.90;;;;;;;;;;7387481;19;20017;-76
2022/06/03 01:43:23;;;;;;;3.58;2.00;;;;;;;;;;7387829;19;20010;-76
2022/06/03 01:45:48;;;;;;;;;;;;;;;;;;7385252;19;20078;-76
2022/06/03 01:48:26;;;;;;;2.13;1.90;;;;;;;;;;7383372;19;19914;-75
2022/06/03 01:50:59;;;;;;;5.95;2.17;;;;;;;;;;7386185;19;20252;-75
2022/06/03 01:54:22;;;;;;;2.38;2.00;;;;;;;;;;7386115;19;20011;-76
2022/06/03 01:57:12;;;;;;;2.38;1.90;;;;;;;;;;7384902;19;20031;-76
2022/06/03 02:00:15;;;;;;;2.10;1.90;;;;;;;;;;7384207;19;20073;-76
2022/06/03 02:02:59;;;;;;;3.55;1.60;;;;;;;;;;7387938;19;20014;-76
2022/06/03 02:06:06;;;;;;;1.55;1.45;;;;;;;;;;7392759;19;20027;-76
2022/06/03 02:08:47;;;;;;;4.03;1.80;;;;;;;;;;7391938;19;20493;-76
2022/06/03 02:11:42;;;;;;;2.75;1.90;;;;;;;;;;7392006;19;20441;-75
2022/06/03 02:14:23;;;;;;;4.22;2.00;;;;;;;;;;7389388;19;20010;-75
2022/06/03 02:17:13;;;;;;;2.53;1.75;;;;;;;;;;7389881;19;20019;-76
2022/06/03 02:19:53;;;;;;;2.42;1.38;;;;;;;;;;7393463;19;20069;-76
2022/06/03 02:22:27;;;;;;;2.95;1.77;;;;;;;;;;7390295;19;20006;-76
2022/06/03 02:25:30;;;;;;;4.88;1.80;;;;;;;;;;7391838;19;20411;-77
2022/06/03 02:28:07;;;;;;;2.92;1.70;;;;;;;;;;7390055;19;20010;-76
2022/06/03 02:31:05;;;;;;;2.65;1.75;;;;;;;;;;7390015;19;20101;-76
2022/06/03 02:33:36;;;;;;;3.95;2.08;;;;;;;;;;7392739;19;20017;-75
2022/06/03 02:36:23;;;;;;;3.13;1.80;;;;;;;;;;7391872;19;20038;-76
2022/06/03 02:39:16;;;;;;;2.20;2.00;;;;;;;;;;7390613;19;20027;-76
2022/06/03 02:42:21;;;;;;;3.33;1.83;;;;;;;;;;7389934;19;20441;-76
2022/06/03 02:44:49;;;;;;;3.70;1.80;;;;;;;;;;7392731;19;20556;-76
2022/06/03 02:47:23;;;;;;;2.20;2.00;;;;;;;;;;7386727;19;20509;-76
2022/06/03 02:50:26;;;;;;;2.47;1.45;;;;;;;;;;7391872;19;20757;-75
2022/06/03 02:53:00;;;;;;;2.08;1.50;;;;;;;;;;7391204;19;20018;-76
2022/06/03 02:55:50;;;;;;;2.67;1.83;;;;;;;;;;7391793;19;20031;-76
2022/06/03 02:58:34;;;;;;;3.28;2.15;;;;;;;;;;7389845;19;20034;-75
2022/06/03 03:01:02;;;;;;;1.85;1.70;;;;;;;;;;7388658;19;20526;-74
2022/06/03 03:04:05;;;;;;;2.08;1.85;;;;;;;;;;7392657;19;20017;-76
2022/06/03 03:07:09;;;;;;;1.75;1.65;;;;;;;;;;7390113;19;20019;-76
2022/06/03 03:10:03;;;;;;;3.22;2.13;;;;;;;;;;7390696;19;20046;-76
2022/06/03 03:12:40;;;;;;;2.50;2.10;;;;;;;;;;7391372;19;20701;-77
2022/06/03 03:15:26;;;;;;;2.42;1.70;;;;;;;;;;7388064;19;20508;-76
2022/06/03 03:18:12;;;;;;;1.95;1.67;;;;;;;;;;7384395;19;20007;-75
2022/06/03 03:20:57;;;;;;;2.75;1.63;;;;;;;;;;7389560;19;20006;-76
2022/06/03 03:23:41;;;;;;;2.35;2.05;;;;;;;;;;7392254;19;20035;-76
2022/06/03 03:26:31;;;;;;;2.30;1.70;;;;;;;;;;7391032;19;20014;-75
2022/06/03 03:29:13;;;;;;;2.67;2.20;;;;;;;;;;7389508;19;20027;-76
2022/06/03 03:32:07;;;;;;;3.90;2.00;;;;;;;;;;7391113;19;20077;-75
2022/06/03 03:34:45;;;;;;;2.90;1.92;;;;;;;;;;7386771;19;20111;-76
2022/06/03 03:37:28;;;;;;;3.33;1.90;;;;;;;;;;7389929;19;20028;-76
2022/06/03 03:40:08;;;;;;;4.82;2.00;;;;;;;;;;7390185;19;20002;-76
2022/06/03 03:42:51;;;;;;;2.85;2.13;;;;;;;;;;7389172;19;20332;-77
2022/06/03 03:45:36;;;;;;;3.50;2.33;;;;;;;;;;7391501;19;20050;-76
2022/06/03 03:48:36;;;;;;;2.50;1.83;;;;;;;;;;7384152;19;20007;-76
2022/06/03 03:51:13;;;;;;;2.30;2.10;;;;;;;;;;7383164;19;20038;-75
2022/06/03 03:54:12;;;;;;;3.65;2.33;;;;;;;;;;7386065;19;20018;-75
2022/06/03 03:57:08;;;;;;;3.45;1.90;;;;;;;;;;7390693;19;20124;-74
2022/06/03 04:00:05;;;;;;;3.17;2.00;;;;;;;;;;7391456;19;20002;-76
2022/06/03 04:03:01;;;;;;;2.40;1.95;;;;;;;;;;7387584;19;20033;-75
2022/06/03 04:05:59;;;;;;;3.95;2.42;;;;;;;;;;7388487;19;20018;-75
2022/06/03 04:08:30;;;;;;;2.35;1.75;;;;;;;;;;7385851;19;20049;-76
2022/06/03 04:11:34;;;;;;;2.78;2.20;;;;;;;;;;7386185;19;20543;-77
2022/06/03 04:14:24;;;;;;;4.47;2.00;;;;;;;;;;7387540;19;20127;-76
2022/06/03 04:17:27;;;;;;;2.05;1.52;;;;;;;;;;7390767;19;20009;-75
2022/06/03 04:20:26;;;;;;;2.50;1.52;;;;;;;;;;7389640;19;20010;-76
2022/06/03 04:23:25;;;;;;;1.67;1.58;;;;;;;;;;7390186;19;20027;-75
2022/06/03 04:26:27;;;;;;;2.55;1.80;;;;;;;;;;7388358;19;20010;-77
2022/06/03 04:29:34;;;;;;;8.57;4.97;;;;;;;;;;7389650;19;20027;-76
2022/06/03 04:32:12;;;;;;;4.20;2.45;;;;;;;;;;7297023;19;20015;-75
2022/06/03 04:34:49;;;;;;;1.83;1.60;;;;;;;;;;7386826;19;20019;-76
2022/06/03 04:37:20;;;;;;;2.15;1.77;;;;;;;;;;7386893;19;20015;-76
2022/06/03 04:40:18;;;;;;;4.85;2.08;;;;;;;;;;7387865;19;20463;-76
2022/06/03 04:43:02;;;;;;;2.40;2.20;;;;;;;;;;7391033;19;20002;-75
2022/06/03 04:46:01;;;;;;;2.72;1.95;;;;;;;;;;7390093;19;20467;-76
2022/06/03 04:48:45;;;;;;;3.83;1.92;;;;;;;;;;7383085;19;20587;-76
2022/06/03 04:51:48;;;;;;;7.22;3.55;;;;;;;;;;7391337;19;20031;-75
2022/06/03 04:54:50;;;;;;;2.10;1.90;;;;;;;;;;7386254;19;20153;-76
2022/06/03 04:57:53;;;;;;;3.47;1.90;;;;;;;;;;7378507;19;20021;-76
2022/06/03 05:00:32;;;;;;;3.50;2.20;;;;;;;;;;7383918;19;20010;-76
2022/06/03 05:03:41;;;;;;;3.85;2.42;;;;;;;;;;7390559;19;20030;-75
2022/06/03 05:06:09;;;;;;;2.47;2.03;;;;;;;;;;7389341;19;20095;-75
2022/06/03 05:09:02;;;;;;;2.08;1.83;;;;;;;;;;7387872;19;20014;-76
2022/06/03 05:11:52;;;;;;;1.83;1.58;;;;;;;;;;7386739;19;20018;-75
2022/06/03 05:14:42;;;;;;;2.00;1.73;;;;;;;;;;7389184;19;20070;-75
2022/06/03 05:17:20;;;;;;;3.83;2.17;;;;;;;;;;7390044;19;20021;-76
2022/06/03 05:20:05;;;;;;;3.70;2.00;;;;;;;;;;7388579;19;20584;-75
2022/06/03 05:22:52;;;;;;;3.20;2.20;;;;;;;;;;7389423;19;20018;-75
2022/06/03 05:25:32;;;;;;;3.00;2.00;;;;;;;;;;7390384;19;20134;-75
2022/06/03 05:28:31;;;;;;;2.50;2.30;;;;;;;;;;7382492;19;20006;-76
2022/06/03 05:31:09;;;;;;;2.47;1.95;;;;;;;;;;7386276;19;20085;-75
2022/06/03 05:34:08;;;;;;;3.50;2.38;;;;;;;;;;7387356;19;20007;-75
2022/06/03 05:36:45;;;;;;;2.92;2.33;;;;;;;;;;7386200;19;20026;-76
2022/06/03 05:39:34;;;;;;;2.28;2.00;;;;;;;;;;7394605;19;20010;-76
2022/06/03 05:42:24;;;;;;;4.07;2.25;;;;;;;;;;7392029;19;20010;-76
2022/06/03 05:45:11;;;;;;;2.42;1.92;;;;;;;;;;7397338;19;20081;-76
2022/06/03 05:47:44;;;;;;;2.83;2.08;;;;;;;;;;7392931;19;20003;-76
2022/06/03 05:50:22;;;;;;;1.70;1.60;;;;;;;;;;7391448;19;20011;-76
2022/06/03 05:53:09;;;;;;;2.40;1.77;;;;;;;;;;7396010;19;20010;-76
2022/06/03 05:56:00;;;;;;;2.45;1.85;;;;;;;;;;7392819;19;20018;-75
2022/06/03 05:58:45;;;;;;;4.35;2.10;;;;;;;;;;7394506;19;20027;-75
2022/06/03 06:01:35;;;;;;;2.15;2.00;;;;;;;;;;7394172;19;20011;-76
2022/06/03 06:04:25;;;;;;;2.25;2.03;;;;;;;;;;7392124;19;20002;-76
2022/06/03 06:07:03;;;;;;;2.13;1.92;;;;;;;;;;7396540;19;20031;-75
2022/06/03 06:09:50;;;;;;;2.50;2.08;;;;;;;;;;7393847;19;20002;-75
2022/06/03 06:12:26;;;;;;;3.63;2.40;;;;;;;;;;7395311;19;20006;-75
2022/06/03 06:15:19;;;;;;;3.88;2.17;;;;;;;;;;7395942;19;20011;-75
2022/06/03 06:17:48;;;;;;;2.70;2.13;;;;;;;;;;7391883;19;20471;-75
2022/06/03 06:20:38;;;;;;;2.40;2.20;;;;;;;;;;7397600;19;20009;-75
2022/06/03 06:23:38;;;;;;;3.55;2.38;;;;;;;;;;7395907;19;20006;-76
2022/06/03 06:26:12;;;;;;;3.10;2.10;;;;;;;;;;7393818;19;20006;-75
2022/06/03 06:29:18;;;;;;;2.42;1.95;;;;;;;;;;7390650;19;20476;-75
2022/06/03 06:32:20;;;;;;;4.20;2.63;;;;;;;;;;7394645;19;20014;-77
2022/06/03 06:35:23;;;;;;;2.00;1.90;;;;;;;;;;7391945;19;20007;-76
2022/06/03 06:37:48;;;;;;;3.22;2.25;;;;;;;;;;7391641;19;20010;-76
2022/06/03 06:40:23;;;;;;;4.65;2.17;;;;;;;;;;7389855;19;20026;-77
2022/06/03 06:43:35;;;;;;;2.67;2.10;;;;;;;;;;7382437;19;20003;-76
2022/06/03 06:46:08;;;;;;;5.20;2.33;;;;;;;;;;7388578;19;20522;-77
2022/06/03 06:48:51;;;;;;;2.20;2.00;;;;;;;;;;7390484;19;20049;-78
2022/06/03 06:51:31;;;;;;;2.65;2.10;;;;;;;;;;7398739;19;20022;-80
2022/06/03 06:54:10;;;;;;;2.47;2.00;;;;;;;;;;7402452;19;20013;-78
2022/06/03 06:56:57;;;;;;;2.13;1.98;;;;;;;;;;7404160;19;20021;-79
2022/06/03 06:59:38;;;;;;;2.38;2.08;;;;;;;;;;7403678;19;20030;-79
2022/06/03 07:02:07;;;;;;;2.97;2.15;;;;;;;;;;7398191;19;20057;-77
2022/06/03 07:04:41;;;;;;;2.38;2.17;;;;;;;;;;7400578;19;20054;-79
2022/06/03 07:07:22;;;;;;;5.22;2.28;;;;;;;;;;7398599;19;20017;-80
2022/06/03 07:10:07;;;;;;;2.92;2.42;;;;;;;;;;7402567;19;20534;-78
2022/06/03 07:12:54;;;;;;;3.35;2.30;;;;;;;;;;7398493;19;20010;-78
2022/06/03 07:15:33;;;;;;;3.05;2.30;;;;;;;;;;7400874;19;20002;-79
2022/06/03 07:21:48;;;;;;;4.38;2.53;;;;;;;;;;7388578;19;20006;-75
2022/06/03 07:24:37;;;;;;;2.08;1.90;;;;;;;;;;7388725;19;20011;-77
2022/06/03 07:27:08;;;;;;;2.47;2.05;;;;;;;;;;7389709;19;20038;-76
2022/06/03 07:29:46;;;;;;;3.17;2.00;;;;;;;;;;7391075;19;20006;-76
2022/06/03 07:32:18;;;;;;;3.17;2.38;;;;;;;;;;7391539;19;20466;-76
2022/06/03 07:35:05;;;;;;;2.67;2.20;;;;;;;;;;7392491;19;20013;-77
2022/06/03 07:37:52;;;;;;;2.75;2.35;;;;;;;;;;7390644;19;20011;-76
2022/06/03 07:40:23;;;;;;;5.65;2.33;;;;;;;;;;7393000;19;20530;-76
2022/06/03 07:42:58;;;;;;;2.00;1.80;;;;;;;;;;7389442;19;20010;-76
2022/06/03 07:45:40;;;;;;;3.55;2.15;;;;;;;;;;7388236;19;20010;-76
2022/06/03 07:48:11;;;;;;;2.97;2.50;;;;;;;;;;7388345;19;20002;-75
2022/06/03 07:50:49;;;;;;;2.67;2.10;;;;;;;;;;7384351;19;20074;-76
2022/06/03 07:53:22;;;;;;;5.25;2.20;;;;;;;;;;7385644;19;20407;-76
2022/06/03 07:55:55;;;;;;;2.75;2.08;;;;;;;;;;7392606;19;20023;-76
2022/06/03 07:58:23;;;;;;;2.45;2.22;;;;;;;;;;7386833;19;20014;-76
2022/06/03 08:00:48;;;;;;;3.63;2.30;;;;;;;;;;7383734;19;20010;-76
2022/06/03 08:03:16;;;;;;;3.72;2.22;;;;;;;;;;7388793;19;20043;-76
2022/06/03 08:05:47;;;;;;;4.45;2.70;;;;;;;;;;7393459;19;20470;-76
2022/06/03 08:11:26;;;;;;;3.33;2.50;;;;;;;;;;7392815;19;20026;-77
2022/06/03 08:13:54;;;;;;;4.47;2.30;;;;;;;;;;7390647;19;20003;-77
2022/06/03 08:16:42;;;;;;;2.03;1.92;;;;;;;;;;7393806;19;20002;-76
2022/06/03 08:19:10;;;;;;;5.82;2.50;;;;;;;;;;7387855;19;20010;-75
2022/06/03 08:21:47;;;;;;;4.05;2.53;;;;;;;;;;7388907;19;20008;-75
2022/06/03 08:24:18;;;;;;;2.40;2.20;;;;;;;;;;7392682;19;20492;-75
2022/06/03 08:26:49;;;;;;;2.25;2.00;;;;;;;;;;7389239;19;20310;-76
2022/06/03 08:29:23;;;;;;;4.38;2.28;;;;;;;;;;7393185;19;20014;-76
2022/06/03 08:31:50;;;;;;;4.75;3.00;;;;;;;;;;7385683;19;20011;-75
2022/06/03 08:34:34;;;;;;;2.45;2.20;;;;;;;;;;7387495;19;20007;-76
2022/06/03 08:37:00;;;;;;;2.95;2.25;;;;;;;;;;7388155;19;20018;-74
2022/06/03 08:39:28;;;;;;;4.25;2.20;;;;;;;;;;7391184;19;20082;-76
2022/06/03 08:42:17;;;;;;;3.40;2.45;;;;;;;;;;7389450;19;20459;-76
2022/06/03 08:44:45;;;;;;;2.45;2.25;;;;;;;;;;7388290;19;20096;-76
2022/06/03 08:47:19;;;;;;;2.70;2.22;;;;;;;;;;7389944;19;20015;-76
2022/06/03 08:49:56;;;;;;;4.43;2.17;;;;;;;;;;7391419;19;20484;-76
2022/06/03 08:52:30;;;;;;;2.50;2.30;;;;;;;;;;7390445;19;20389;-75
2022/06/03 08:55:01;;;;;;;2.92;2.53;;;;;;;;;;7391388;19;20011;-75
2022/06/03 08:57:43;;;;;;;3.45;2.10;;;;;;;;;;7388236;19;20038;-75
2022/06/03 09:00:13;;;;;;;2.28;1.92;;;;;;;;;;7390626;19;20048;-76
2022/06/03 09:02:45;;;;;;;3.42;2.00;;;;;;;;;;7388008;19;20011;-75
2022/06/03 09:05:20;;;;;;;2.65;1.65;;;;;;;;;;7389980;19;20015;-76
2022/06/03 09:07:55;;;;;;;3.70;2.08;;;;;;;;;;7388221;19;20484;-76
2022/06/03 09:11:01;;;;;;;2.33;1.80;;;;;;;;;;7389992;19;20468;-75
2022/06/03 09:13:43;;;;;;;1.80;1.60;;;;;;;;;;7385600;19;19994;-77
2022/06/03 09:16:11;;;;;;;4.38;1.90;;;;;;;;;;7390390;19;19991;-76
2022/06/03 09:18:45;;;;;;;3.13;2.33;;;;;;;;;;7387493;19;20006;-75
2022/06/03 09:21:14;;;;;;;2.08;1.88;;;;;;;;;;7388215;19;20096;-76
2022/06/03 09:23:43;;;;;;;2.40;1.70;;;;;;;;;;7389783;19;20048;-76
2022/06/03 09:26:39;;;;;;;2.90;2.00;;;;;;;;;;7390282;19;20002;-76
2022/06/03 09:29:10;;;;;;;2.33;1.98;;;;;;;;;;7388235;19;20068;-75
2022/06/03 09:31:36;;;;;;;1.85;1.70;;;;;;;;;;7387520;19;20009;-74
2022/06/03 09:34:05;;;;;;;2.10;1.63;;;;;;;;;;7389255;19;20397;-75
2022/06/03 09:36:33;;;;;;;1.52;1.20;;;;;;;;;;7389226;19;20011;-76
2022/06/03 09:39:03;;;;;;;1.70;1.60;;;;;;;;;;7390048;19;20015;-75
2022/06/03 09:41:34;;;;;;;2.25;1.65;;;;;;;;;;7388635;19;20468;-76
2022/06/03 09:44:03;;;;;;;2.33;1.20;;;;;;;;;;7388212;19;20027;-74
2022/06/03 09:46:30;;;;;;;2.38;1.40;;;;;;;;;;7389357;19;19996;-76
2022/06/03 09:48:57;;;;;;;1.73;1.38;;;;;;;;;;7386946;19;20082;-76
2022/06/03 09:54:19;;;;;;;2.00;1.30;;;;;;;;;;7388635;19;20140;-76
2022/06/03 09:56:48;;;;;;;2.33;1.30;;;;;;;;;;7388251;19;20085;-76
2022/06/03 09:59:13;;;;;;;1.50;1.13;;;;;;;;;;7389742;19;20031;-77
2022/06/03 10:01:39;;;;;;;1.10;0.98;;;;;;;;;;7387848;19;20007;-76
2022/06/03 10:04:06;;;;;;;1.85;1.40;;;;;;;;;;7386667;19;20117;-76
2022/06/03 10:06:46;;;;;;;2.25;1.23;;;;;;;;;;7386936;19;20007;-76
2022/06/03 10:15:37;;;;;;;2.90;1.33;;;;;;;;;;7389617;19;20021;-76
2022/06/03 10:17:34;;;;;;;2.70;1.30;;;;;;;;;;7386356;19;20496;-75
2022/06/03 10:20:00;;;;;;;2.08;1.40;;;;;;;;;;7389659;19;20041;-77
2022/06/03 10:22:25;;;;;;;4.57;1.60;;;;;;;;;;7381543;19;20302;-74
2022/06/03 10:24:50;;;;;;;1.55;1.40;;;;;;;;;;7390460;19;20006;-77
2022/06/03 10:27:18;;;;;;;1.52;1.00;;;;;;;;;;7392315;19;20396;-75
2022/06/03 10:29:49;;;;;;;1.10;1.05;;;;;;;;;;7393887;19;20018;-76
2022/06/03 10:32:18;;;;;;;1.67;1.40;;;;;;;;;;7394483;19;20436;-76
2022/06/03 10:34:44;;;;;;;2.00;1.27;;;;;;;;;;7394844;19;20077;-76
2022/06/03 10:37:18;;;;;;;4.72;1.10;;;;;;;;;;7394756;19;20409;-75
2022/06/03 10:39:44;;;;;;;1.40;1.30;;;;;;;;;;7391630;19;20006;-75
2022/06/03 10:42:17;;;;;;;3.47;0.90;;;;;;;;;;7392024;19;20045;-75
2022/06/03 10:44:46;;;;;;;1.65;1.20;;;;;;;;;;7394185;19;20068;-76
2022/06/03 10:47:20;;;;;;;1.45;0.98;;;;;;;;;;7391986;19;20006;-74
2022/06/03 10:49:57;;;;;;;1.30;1.00;;;;;;;;;;7387844;19;20006;-76
2022/06/03 11:01:07;;;;;;;7.95;1.30;;;;;;;;;;7391938;19;20041;-75
2022/06/03 11:03:35;;;;;;;1.45;0.77;;;;;;;;;;7391972;19;20018;-76
2022/06/03 11:06:12;;;;;;;1.58;0.90;;;;;;;;;;7389903;19;20014;-75
2022/06/03 11:08:49;;;;;;;2.13;1.10;;;;;;;;;;7388139;19;20006;-75
2022/06/03 11:11:33;;;;;;;0.98;0.88;;;;;;;;;;7392098;19;20006;-75
2022/06/03 11:14:36;;;;;;;3.70;1.00;;;;;;;;;;7390999;19;20014;-76
2022/06/03 11:17:07;;;;;;;1.00;0.90;;;;;;;;;;7390015;19;20090;-75
2022/06/03 11:19:40;;;;;;;1.10;1.10;;;;;;;;;;7388855;19;20041;-75
2022/06/03 11:22:17;;;;;;;4.53;0.90;;;;;;;;;;7388839;19;20010;-76
2022/06/03 11:24:54;;;;;;;1.05;1.02;;;;;;;;;;7390881;19;20353;-76
2022/06/03 11:27:25;;;;;;;1.63;0.73;;;;;;;;;;7390961;19;20345;-76
2022/06/03 11:29:54;;;;;;;0.80;0.80;;;;;;;;;;7389597;19;20022;-75
2022/06/03 11:32:21;;;;;;;1.77;1.08;;;;;;;;;;7390809;19;20468;-76
2022/06/03 11:34:57;;;;;;;1.38;0.80;;;;;;;;;;7391521;19;20017;-76
2022/06/03 11:37:44;;;;;;;3.22;1.00;;;;;;;;;;7387126;19;20281;-76
2022/06/03 11:40:24;;;;;;;2.70;0.90;;;;;;;;;;7394290;19;20507;-77
2022/06/03 11:43:05;;;;;;;2.50;0.90;;;;;;;;;;7386968;19;20011;-76
2022/06/03 11:45:44;;;;;;;0.65;0.65;;;;;;;;;;7393538;19;20015;-76
2022/06/03 11:48:14;;;;;;;2.10;0.75;;;;;;;;;;7385928;19;20381;-76
2022/06/03 11:50:40;;;;;;;2.33;1.52;;;;;;;;;;7394824;19;20007;-75
2022/06/03 11:53:06;;;;;;;1.48;0.80;;;;;;;;;;7388099;19;20010;-74
2022/06/03 11:55:33;;;;;;;1.15;1.02;;;;;;;;;;7394522;19;20011;-77
2022/06/03 11:58:17;;;;;;;4.80;1.00;;;;;;;;;;7388194;19;20090;-75
2022/06/03 12:00:59;;;;;;;1.30;1.00;;;;;;;;;;7391888;19;21295;-77
2022/06/03 12:04:02;;;;;;;1.42;1.00;;;;;;;;;;7391018;19;20043;-76
2022/06/03 12:06:36;;;;;;;6.00;2.10;;;;;;;;;;7390194;19;20452;-77
2022/06/03 12:09:13;;;;;;;3.63;1.52;;;;;;;;;;7389271;19;20109;-76
2022/06/03 12:14:38;;;;;;;1.75;1.23;;;;;;;;;;7392779;19;20009;-76
2022/06/03 12:17:09;;;;;;;1.40;1.10;;;;;;;;;;7389815;19;20340;-75
2022/06/03 12:19:50;;;;;;;1.38;0.90;;;;;;;;;;7392359;19;20010;-76
2022/06/03 12:22:21;;;;;;;1.33;1.20;;;;;;;;;;7385926;19;20018;-76
2022/06/03 12:24:51;;;;;;;1.90;1.00;;;;;;;;;;7389265;19;20475;-76
2022/06/03 12:27:23;;;;;;;3.38;0.93;;;;;;;;;;7388997;19;20549;-76
2022/06/03 12:30:09;;;;;;;3.25;1.20;;;;;;;;;;7390802;19;20006;-76
2022/06/03 12:32:37;;;;;;;1.35;1.25;;;;;;;;;;7387322;19;20021;-76
2022/06/03 12:35:45;;;;;;;0.95;0.80;;;;;;;;;;7391401;19;20002;-77
2022/06/03 12:38:19;;;;;;;1.30;1.00;;;;;;;;;;7385741;19;20018;-77
2022/06/03 12:40:46;;;;;;;0.90;0.90;;;;;;;;;;7389920;19;20015;-76
2022/06/03 12:43:46;;;;;;;2.22;0.95;;;;;;;;;;7392509;19;20004;-76
2022/06/03 12:46:34;;;;;;;0.93;0.88;;;;;;;;;;7386976;19;20070;-75
2022/06/03 12:48:59;;;;;;;1.08;0.82;;;;;;;;;;7389650;19;20069;-76
2022/06/03 12:51:29;;;;;;;1.23;1.00;;;;;;;;;;7386814;19;20010;-75
2022/06/03 12:54:02;;;;;;;1.50;1.00;;;;;;;;;;7389800;19;20015;-76
2022/06/03 12:56:37;;;;;;;1.15;1.02;;;;;;;;;;7390193;19;20045;-75
2022/06/03 12:59:17;;;;;;;0.82;0.82;;;;;;;;;;7391167;19;20010;-76
2022/06/03 13:01:48;;;;;;;0.80;0.80;;;;;;;;;;7389665;19;20082;-76
2022/06/03 13:04:46;;;;;;;0.90;0.90;;;;;;;;;;7385041;19;20431;-76
2022/06/03 13:07:26;;;;;;;0.90;0.90;;;;;;;;;;7382754;19;20383;-77
2022/06/03 13:10:04;;;;;;;1.00;1.00;;;;;;;;;;7383914;19;20013;-75
2022/06/03 13:12:32;;;;;;;2.92;1.02;;;;;;;;;;7386912;19;20002;-76
2022/06/03 13:15:20;;;;;;;0.77;0.77;;;;;;;;;;7386079;19;20007;-76
2022/06/03 13:18:10;;;;;;;1.90;1.00;;;;;;;;;;7381609;19;20471;-77
2022/06/03 13:20:35;;;;;;;0.95;0.90;;;;;;;;;;7385835;19;20504;-76
2022/06/03 13:23:01;;;;;;;2.70;0.90;;;;;;;;;;7383104;19;20017;-77
2022/06/03 13:25:31;;;;;;;0.95;0.90;;;;;;;;;;7385329;19;20407;-76
2022/06/03 13:28:22;;;;;;;1.20;0.80;;;;;;;;;;7387730;19;20009;-77
2022/06/03 13:31:16;;;;;;;2.67;1.13;;;;;;;;;;7388808;19;20014;-76
2022/06/03 13:34:10;;;;;;;1.27;1.10;;;;;;;;;;7385413;19;20010;-76
2022/06/03 13:36:39;;;;;;;2.30;0.85;;;;;;;;;;7390383;19;20372;-77
2022/06/03 13:39:10;;;;;;;1.38;1.13;;;;;;;;;;7386748;19;20072;-76
2022/06/03 13:44:36;;;;;;;1.08;0.80;;;;;;;;;;7388513;19;20013;-77
2022/06/03 13:47:06;;;;;;;0.90;0.80;;;;;;;;;;7381867;19;20014;-76
2022/06/03 13:49:32;;;;;;;1.00;0.90;;;;;;;;;;7383652;19;20006;-77
2022/06/03 13:52:11;;;;;;;2.38;1.00;;;;;;;;;;7385538;19;20096;-73
2022/06/03 13:54:36;;;;;;;1.02;1.00;;;;;;;;;;7391630;19;20018;-76
2022/06/03 13:57:14;;;;;;;0.98;0.80;;;;;;;;;;7391428;19;20459;-76
2022/06/03 13:59:41;;;;;;;3.50;1.00;;;;;;;;;;7396053;19;20365;-76
2022/06/03 14:02:23;;;;;;;1.55;0.77;;;;;;;;;;7393842;19;20018;-76
2022/06/03 14:04:57;;;;;;;1.13;0.80;;;;;;;;;;7396394;19;20519;-75
2022/06/03 14:07:28;;;;;;;1.95;1.17;;;;;;;;;;7392123;19;20700;-76
2022/06/03 14:09:55;;;;;;;1.20;0.90;;;;;;;;;;7394303;19;20021;-76
2022/06/03 14:12:29;;;;;;;1.20;0.98;;;;;;;;;;7395417;19;20006;-76
2022/06/03 14:14:58;;;;;;;1.00;0.95;;;;;;;;;;7391693;19;20025;-75
2022/06/03 14:17:45;;;;;;;1.23;1.08;;;;;;;;;;7393329;19;20010;-76
2022/06/03 14:20:21;;;;;;;1.77;1.00;;;;;;;;;;7393229;19;20544;-76
2022/06/03 14:22:55;;;;;;;0.90;0.90;;;;;;;;;;7394233;19;20002;-76
2022/06/03 14:25:29;;;;;;;0.82;0.82;;;;;;;;;;7392661;19;20014;-76
2022/06/03 14:28:03;;;;;;;0.80;0.80;;;;;;;;;;7394638;19;20021;-77
2022/06/03 14:30:49;;;;;;;2.03;0.90;;;;;;;;;;7393401;19;20019;-75
2022/06/03 14:33:16;;;;;;;1.10;1.00;;;;;;;;;;7392844;19;20010;-76
2022/06/03 14:35:46;;;;;;;0.90;0.90;;;;;;;;;;7393747;19;20027;-77
2022/06/03 14:38:41;;;;;;;1.33;0.93;;;;;;;;;;7388926;19;20018;-75
2022/06/03 14:41:17;;;;;;;0.98;0.80;;;;;;;;;;7394232;19;20014;-77
2022/06/03 14:43:43;;;;;;;1.50;1.00;;;;;;;;;;7395669;19;20025;-77
2022/06/03 14:46:16;;;;;;;1.42;1.10;;;;;;;;;;7390079;19;20019;-76
2022/06/03 14:48:53;;;;;;;2.20;1.00;;;;;;;;;;7391038;19;20017;-77
2022/06/03 14:51:30;;;;;;;0.73;0.73;;;;;;;;;;7393606;19;20479;-77
2022/06/03 14:54:01;;;;;;;0.70;0.70;;;;;;;;;;7388052;19;20025;-76
2022/06/03 14:56:35;;;;;;;1.42;1.00;;;;;;;;;;7387555;19;20493;-76
2022/06/03 14:59:14;;;;;;;1.73;0.80;;;;;;;;;;7387707;19;20022;-76
2022/06/03 15:01:47;;;;;;;1.20;0.90;;;;;;;;;;7386080;19;20006;-75
2022/06/03 15:04:30;;;;;;;2.38;1.13;;;;;;;;;;7382133;19;20014;-76
2022/06/03 15:07:04;;;;;;;1.05;0.95;;;;;;;;;;7390157;19;20015;-76
2022/06/03 15:09:47;;;;;;;0.95;0.95;;;;;;;;;;7384359;19;20550;-77
2022/06/03 15:12:25;;;;;;;0.80;0.80;;;;;;;;;;7386574;19;20018;-77
2022/06/03 15:14:52;;;;;;;1.45;1.00;;;;;;;;;;7388376;19;20015;-75
2022/06/03 15:17:24;;;;;;;3.60;1.20;;;;;;;;;;7396012;19;20356;-76
2022/06/03 15:19:52;;;;;;;0.98;0.90;;;;;;;;;;7398823;19;20074;-75
2022/06/03 15:22:46;;;;;;;1.88;1.23;;;;;;;;;;7396815;19;20551;-75
2022/06/03 15:25:31;;;;;;;0.88;0.88;;;;;;;;;;7391027;19;20574;-76
2022/06/03 15:28:09;;;;;;;4.97;1.23;;;;;;;;;;7391174;19;20018;-76
2022/06/03 15:30:38;;;;;;;2.05;0.85;;;;;;;;;;7391685;19;20121;-75
2022/06/03 15:33:24;;;;;;;1.85;1.02;;;;;;;;;;7388370;19;20007;-76
2022/06/03 15:36:04;;;;;;;1.20;0.95;;;;;;;;;;7392398;19;20015;-77
2022/06/03 15:38:35;;;;;;;3.90;1.33;;;;;;;;;;7389055;19;20056;-77
2022/06/03 15:41:05;;;;;;;2.65;1.55;;;;;;;;;;7393870;19;20010;-75
2022/06/03 15:43:45;;;;;;;5.00;2.10;;;;;;;;;;7396164;19;20023;-78
2022/06/03 15:46:28;;;;;;;3.00;1.48;;;;;;;;;;7392533;19;20010;-77
2022/06/03 15:48:56;;;;;;;1.13;0.82;;;;;;;;;;7394123;19;20007;-77
2022/06/03 15:51:22;;;;;;;3.65;1.10;;;;;;;;;;7393166;19;20006;-78
2022/06/03 15:53:53;;;;;;;3.25;1.40;;;;;;;;;;7391261;19;20020;-78
2022/06/03 15:56:40;;;;;;;2.85;1.10;;;;;;;;;;7390729;19;20052;-78
2022/06/03 15:59:26;;;;;;;2.13;1.17;;;;;;;;;;7385215;19;20364;-77
2022/06/03 16:02:21;;;;;;;3.35;1.30;;;;;;;;;;7390342;19;20010;-76
2022/06/03 16:05:07;;;;;;;2.10;1.20;;;;;;;;;;7388673;19;20003;-77
2022/06/03 16:07:42;;;;;;;2.63;1.20;;;;;;;;;;7390007;19;20078;-77
2022/06/03 16:10:32;;;;;;;2.22;1.17;;;;;;;;;;7392695;19;20006;-77
2022/06/03 16:13:27;;;;;;;1.00;0.90;;;;;;;;;;7385547;19;20006;-76
2022/06/03 16:16:04;;;;;;;2.78;1.17;;;;;;;;;;7391146;19;20007;-76
2022/06/03 16:18:51;;;;;;;1.98;1.00;;;;;;;;;;7386490;19;20010;-77
2022/06/03 16:21:42;;;;;;;2.55;1.35;;;;;;;;;;7386565;19;20006;-77
2022/06/03 16:24:30;;;;;;;2.55;1.02;;;;;;;;;;7386829;19;20066;-76
2022/06/03 16:27:03;;;;;;;1.25;1.15;;;;;;;;;;7389384;19;20021;-77
2022/06/03 16:29:39;;;;;;;2.90;0.77;;;;;;;;;;7390009;19;20576;-76
2022/06/03 16:32:29;;;;;;;1.67;0.75;;;;;;;;;;7388938;19;20363;-77
2022/06/03 16:35:10;;;;;;;1.35;0.60;;;;;;;;;;7390703;19;20424;-77